createdAt,value
2018-06-19T00:15:05.489Z,100.00
2018-06-19T00:35:49.053Z,99.49
2018-06-19T00:56:36.384Z,98.63
2018-06-19T01:17:06.356Z,98.40
2018-06-19T01:37:43.779Z,99.24
2018-06-19T01:58:16.904Z,99.14
2018-06-19T02:18:54.325Z,99.71
2018-06-19T02:39:36.360Z,100.00
2018-06-19T03:00:11.977Z,99.47
2018-06-19T03:20:46.901Z,99.84
2018-06-19T03:41:30.527Z,99.84
2018-06-19T04:02:07.588Z,99.78
2018-06-19T04:22:42.861Z,100.00
2018-06-19T04:43:23.042Z,100.00
2018-06-19T05:03:58.317Z,100.00
2018-06-19T05:24:34.512Z,100.00
2018-06-19T05:45:06.066Z,97.63
2018-06-19T06:05:42.045Z,94.93
2018-06-19T06:26:18.179Z,94.70
2018-06-19T06:46:49.457Z,91.55
2018-06-19T07:07:29.642Z,92.23
2018-06-19T07:28:08.269Z,89.76
2018-06-19T08:06:38.790Z,87.92
2018-06-19T08:27:11.910Z,84.73
2018-06-19T09:03:00.176Z,82.97
2018-06-19T09:23:39.444Z,79.21
2018-06-19T09:44:08.570Z,78.72
2018-06-19T10:04:46.920Z,80.68
2018-06-19T10:25:26.798Z,76.82
2018-06-19T10:46:05.452Z,76.61
2018-06-19T11:06:54.852Z,74.74
2018-06-19T11:27:37.403Z,70.90
2018-06-19T11:48:07.239Z,70.94
2018-06-19T12:08:53.922Z,73.16
2018-06-19T12:29:27.931Z,73.11
2018-06-19T12:50:45.856Z,68.94
2018-06-19T13:11:21.786Z,64.66
2018-06-19T13:32:01.048Z,69.26
2018-06-19T13:52:43.601Z,64.75
2018-06-19T14:13:27.915Z,66.41
2018-06-19T14:34:04.119Z,68.89
2018-06-19T14:54:39.964Z,71.32
2018-06-19T15:15:14.313Z,69.97
2018-06-19T15:35:55.983Z,66.98
2018-06-19T15:56:35.914Z,67.10
2018-06-19T16:17:16.105Z,69.91
2018-06-19T16:23:10.978Z,68.65
2018-06-19T16:43:48.965Z,66.26
2018-06-19T17:04:30.528Z,67.12
2018-06-19T17:25:08.418Z,67.34
2018-06-19T17:45:38.773Z,69.69
2018-06-19T18:06:04.833Z,71.94
2018-06-19T18:26:43.475Z,70.49
2018-06-19T18:47:26.442Z,72.42
2018-06-19T19:08:07.854Z,78.18
2018-06-19T19:28:52.032Z,80.56
2018-06-19T19:49:33.583Z,83.84
2018-06-19T20:10:08.427Z,87.11
2018-06-19T20:30:48.912Z,90.46
2018-06-19T20:51:32.411Z,92.34
2018-06-19T21:12:08.374Z,92.47
2018-06-19T21:32:47.636Z,93.92
2018-06-19T21:53:19.834Z,94.33
2018-06-19T22:13:59.151Z,96.55
2018-06-19T22:34:38.365Z,96.88
2018-06-19T22:55:15.484Z,96.04
2018-06-19T23:15:52.263Z,98.71
2018-06-19T23:36:31.520Z,98.02
2018-06-19T23:57:14.798Z,98.80
